createdAt,value
2022-08-26T00:00:32.068Z,76.34
2022-08-26T00:06:04.330Z,77.10
2022-08-26T00:11:46.036Z,77.70
2022-08-26T00:14:24.184Z,78.36
2022-08-26T00:17:11.401Z,79.24
2022-08-26T00:20:06.772Z,80.57
2022-08-26T00:22:55.051Z,81.49
2022-08-26T00:25:38.754Z,83.00
2022-08-26T00:28:24.017Z,83.67
2022-08-26T00:33:44.040Z,85.46
2022-08-26T00:36:29.541Z,86.09
2022-08-26T00:39:13.855Z,86.93
2022-08-26T00:44:52.651Z,87.58
2022-08-26T00:47:47.586Z,87.78
2022-08-26T00:50:20.309Z,88.31
2022-08-26T00:52:48.269Z,88.21
2022-08-26T00:55:38.261Z,88.46
2022-08-26T00:58:08.682Z,88.66
2022-08-26T01:00:37.183Z,89.32
2022-08-26T01:03:05.741Z,90.28
2022-08-26T01:05:41.729Z,90.47
2022-08-26T01:08:11.635Z,90.60
2022-08-26T01:10:42.731Z,90.71
2022-08-26T01:13:11.460Z,90.60
2022-08-26T01:15:44.899Z,90.86
2022-08-26T01:18:16.220Z,91.13
2022-08-26T01:21:05.381Z,91.85
2022-08-26T01:23:39.024Z,91.70
2022-08-26T01:26:19.653Z,92.73
2022-08-26T01:28:50.589Z,92.70
2022-08-26T01:31:21.086Z,92.73
2022-08-26T01:34:10.726Z,92.99
2022-08-26T01:36:38.640Z,93.10
2022-08-26T01:39:07.237Z,93.51
2022-08-26T01:41:41.200Z,93.85
2022-08-26T01:44:15.408Z,93.75
2022-08-26T01:46:46.591Z,94.02
2022-08-26T01:49:15.251Z,94.13
2022-08-26T01:51:43.489Z,93.32
2022-08-26T01:54:17.440Z,89.19
2022-08-26T01:56:52.772Z,86.62
2022-08-26T01:59:21.091Z,86.45
2022-08-26T02:01:49.448Z,85.77
2022-08-26T02:04:26.490Z,85.23
2022-08-26T02:06:55.015Z,84.93
2022-08-26T02:09:24.805Z,85.98
2022-08-26T02:11:52.847Z,85.85
2022-08-26T02:14:22.973Z,84.83
2022-08-26T02:16:54.907Z,84.74
2022-08-26T02:19:27.189Z,84.33
2022-08-26T02:21:54.392Z,84.79
2022-08-26T02:24:24.131Z,84.57
2022-08-26T02:26:57.950Z,84.85
2022-08-26T02:29:32.117Z,85.76
2022-08-26T02:31:59.390Z,87.12
2022-08-26T02:34:31.070Z,87.99
2022-08-26T02:37:00.191Z,86.28
2022-08-26T02:39:27.773Z,86.42
2022-08-26T02:41:55.627Z,86.35
2022-08-26T02:44:26.681Z,87.24
2022-08-26T02:46:57.716Z,86.53
2022-08-26T02:49:29.497Z,86.11
2022-08-26T02:52:00.267Z,84.33
2022-08-26T02:54:29.347Z,85.06
2022-08-26T02:56:57.297Z,85.54
2022-08-26T02:59:25.056Z,85.32
2022-08-26T03:01:52.373Z,85.59
2022-08-26T03:04:25.734Z,83.99
2022-08-26T03:06:53.860Z,85.04
2022-08-26T03:09:23.419Z,85.48
2022-08-26T03:11:54.114Z,86.22
2022-08-26T03:14:22.830Z,86.76
2022-08-26T03:16:51.185Z,86.60
2022-08-26T03:19:22.080Z,87.14
2022-08-26T03:21:53.228Z,86.60
2022-08-26T03:24:25.634Z,86.30
2022-08-26T03:26:53.197Z,86.56
2022-08-26T03:29:21.554Z,85.57
2022-08-26T03:31:48.903Z,85.71
2022-08-26T03:34:22.122Z,85.92
2022-08-26T03:36:53.355Z,86.54
2022-08-26T03:39:25.962Z,86.72
2022-08-26T03:41:53.381Z,86.81
2022-08-26T03:44:21.119Z,87.41
2022-08-26T03:46:49.391Z,85.66
2022-08-26T03:49:19.913Z,86.52
2022-08-26T03:51:50.526Z,86.30
2022-08-26T03:54:20.897Z,85.51
2022-08-26T03:56:52.091Z,86.20
2022-08-26T03:59:23.720Z,86.14
2022-08-26T04:02:02.406Z,86.47
2022-08-26T04:04:33.522Z,86.03
2022-08-26T04:07:05.665Z,85.64
2022-08-26T04:09:40.961Z,85.59
2022-08-26T04:12:10.931Z,84.58
2022-08-26T04:14:47.933Z,85.88
2022-08-26T04:17:17.096Z,85.59
2022-08-26T04:19:45.499Z,84.97
2022-08-26T04:22:13.961Z,84.91
2022-08-26T04:24:42.870Z,85.07
2022-08-26T04:27:14.218Z,83.91
2022-08-26T04:29:44.054Z,84.33
2022-08-26T04:32:11.301Z,85.46
2022-08-26T04:34:42.461Z,82.46
2022-08-26T04:37:12.582Z,81.69
2022-08-26T04:39:40.993Z,81.27
2022-08-26T04:42:21.085Z,82.02
2022-08-26T04:44:56.040Z,82.23
2022-08-26T04:47:30.421Z,82.46
2022-08-26T04:50:03.363Z,82.35
2022-08-26T04:52:31.313Z,81.84
2022-08-26T04:55:02.188Z,81.56
2022-08-26T04:57:33.160Z,81.33
2022-08-26T05:00:00.852Z,82.33
2022-08-26T05:02:32.156Z,82.53
2022-08-26T05:05:02.902Z,81.52
2022-08-26T05:07:31.893Z,80.59
2022-08-26T05:10:02.966Z,81.95
2022-08-26T05:12:31.728Z,82.79
2022-08-26T05:14:59.651Z,83.07
2022-08-26T05:17:29.987Z,83.90
2022-08-26T05:20:00.089Z,82.15
2022-08-26T05:22:30.184Z,81.07
2022-08-26T05:24:59.833Z,81.31
2022-08-26T05:27:30.052Z,81.91
2022-08-26T05:29:57.890Z,81.59
2022-08-26T05:32:25.222Z,79.58
2022-08-26T05:34:58.656Z,77.94
2022-08-26T05:37:26.093Z,79.48
2022-08-26T05:39:56.671Z,77.89
2022-08-26T05:42:26.463Z,77.71
2022-08-26T05:44:56.068Z,77.20
2022-08-26T05:47:28.644Z,77.75
2022-08-26T05:49:59.663Z,77.82
2022-08-26T05:52:34.038Z,76.68
2022-08-26T05:55:07.892Z,76.35
2022-08-26T05:57:40.391Z,77.26
2022-08-26T06:00:10.737Z,77.14
2022-08-26T06:02:41.620Z,73.22
2022-08-26T06:05:08.980Z,71.79
2022-08-26T06:07:36.718Z,70.88
2022-08-26T06:10:31.197Z,70.28
2022-08-26T06:13:11.619Z,68.89
2022-08-26T06:15:44.468Z,69.28
2022-08-26T06:18:19.733Z,69.03
2022-08-26T06:20:49.519Z,69.53
2022-08-26T06:23:26.635Z,69.98
2022-08-26T06:25:57.089Z,72.23
2022-08-26T06:28:28.297Z,70.62
2022-08-26T06:30:56.044Z,69.46
2022-08-26T06:33:27.333Z,69.35
2022-08-26T06:35:57.986Z,69.38
2022-08-26T06:38:28.980Z,69.32
2022-08-26T06:40:58.517Z,68.14
2022-08-26T06:43:33.189Z,68.36
2022-08-26T06:46:05.318Z,66.29
2022-08-26T06:48:37.067Z,66.86
2022-08-26T06:51:10.600Z,64.94
2022-08-26T06:53:38.809Z,65.52
2022-08-26T06:56:10.370Z,63.52
2022-08-26T06:58:39.382Z,63.91
2022-08-26T07:01:34.530Z,62.25
2022-08-26T07:04:10.423Z,62.66
2022-08-26T07:06:39.882Z,61.63
2022-08-26T07:09:11.313Z,63.08
2022-08-26T07:11:39.486Z,61.35
2022-08-26T07:14:14.952Z,61.71
2022-08-26T07:16:42.770Z,62.06
2022-08-26T07:19:31.109Z,62.90
2022-08-26T07:22:03.947Z,61.26
2022-08-26T07:24:35.675Z,61.62
2022-08-26T07:27:07.122Z,62.45
2022-08-26T07:29:38.175Z,58.16
2022-08-26T07:32:09.347Z,58.79
2022-08-26T07:34:38.470Z,59.30
2022-08-26T07:37:06.132Z,53.42
2022-08-26T07:39:40.303Z,52.74
2022-08-26T07:42:11.401Z,53.04
2022-08-26T07:44:41.917Z,54.86
2022-08-26T07:47:25.697Z,50.77
2022-08-26T07:49:57.056Z,49.93
2022-08-26T07:52:29.874Z,53.81
2022-08-26T07:54:58.752Z,48.73
2022-08-26T07:57:26.645Z,42.78
2022-08-26T07:59:57.183Z,40.84
2022-08-26T08:02:28.256Z,41.33
2022-08-26T08:04:58.934Z,41.51
2022-08-26T08:07:38.674Z,40.45
2022-08-26T08:10:16.105Z,39.95
2022-08-26T08:12:47.172Z,42.51
2022-08-26T08:15:16.072Z,45.68
2022-08-26T08:17:47.250Z,41.76
2022-08-26T08:20:18.102Z,39.16
2022-08-26T08:22:48.634Z,38.88
2022-08-26T08:25:17.230Z,35.52
2022-08-26T08:27:45.089Z,35.38
2022-08-26T08:30:22.710Z,37.97
2022-08-26T08:32:51.054Z,36.89
2022-08-26T08:35:19.376Z,39.68
2022-08-26T08:37:51.037Z,37.54
2022-08-26T08:40:21.931Z,39.14
2022-08-26T08:43:18.594Z,35.90
2022-08-26T08:45:58.151Z,35.56
2022-08-26T08:48:37.995Z,38.03
2022-08-26T08:51:06.032Z,37.00
2022-08-26T08:53:40.563Z,36.32
2022-08-26T08:56:09.845Z,36.91
2022-08-26T08:58:49.658Z,34.04
2022-08-26T09:01:25.779Z,31.93
2022-08-26T09:04:08.617Z,33.91
2022-08-26T09:06:41.621Z,33.63
2022-08-26T09:09:16.506Z,34.29
2022-08-26T09:11:44.460Z,33.39
2022-08-26T09:14:17.860Z,32.55
2022-08-26T09:16:55.146Z,32.73
2022-08-26T09:19:25.907Z,30.92
2022-08-26T09:21:57.350Z,29.96
2022-08-26T09:24:28.378Z,31.99
2022-08-26T09:26:59.648Z,31.44
2022-08-26T09:29:32.297Z,31.46
2022-08-26T09:32:14.836Z,31.11
2022-08-26T09:35:00.452Z,32.38
2022-08-26T09:37:42.652Z,31.82
2022-08-26T09:40:20.351Z,31.97
2022-08-26T09:42:48.223Z,31.07
2022-08-26T09:45:30.788Z,32.53
2022-08-26T09:48:01.807Z,31.38
2022-08-26T09:50:40.019Z,30.20
2022-08-26T09:53:13.059Z,30.40
2022-08-26T09:55:47.059Z,31.22
2022-08-26T09:58:15.782Z,31.13
2022-08-26T10:01:00.035Z,30.58
2022-08-26T10:03:31.583Z,29.56
2022-08-26T10:06:05.136Z,30.02
2022-08-26T10:08:40.901Z,29.16
2022-08-26T10:11:22.224Z,32.57
2022-08-26T10:13:54.940Z,33.88
2022-08-26T10:16:40.057Z,30.02
2022-08-26T10:19:16.991Z,29.64
2022-08-26T10:21:48.061Z,30.54
2022-08-26T10:24:22.343Z,29.80
2022-08-26T10:26:59.809Z,28.32
2022-08-26T10:29:45.730Z,30.99
2022-08-26T10:32:32.829Z,30.78
2022-08-26T10:35:04.629Z,32.26
2022-08-26T10:37:38.839Z,33.26
2022-08-26T10:40:07.012Z,29.85
2022-08-26T10:42:34.318Z,29.37
2022-08-26T10:45:15.841Z,29.39
2022-08-26T10:47:50.272Z,29.40
2022-08-26T10:50:31.143Z,31.38
2022-08-26T10:53:13.838Z,30.57
2022-08-26T10:55:59.744Z,29.75
2022-08-26T10:58:37.594Z,30.20
2022-08-26T11:01:11.166Z,32.29
2022-08-26T11:03:42.429Z,32.51
2022-08-26T11:06:18.947Z,32.45
2022-08-26T11:08:50.142Z,30.15
2022-08-26T11:11:38.490Z,30.35
2022-08-26T11:14:07.239Z,31.07
2022-08-26T11:16:43.623Z,29.20
2022-08-26T11:19:50.528Z,30.48
2022-08-26T11:22:33.689Z,28.49
2022-08-26T11:25:04.273Z,32.37
2022-08-26T11:27:44.547Z,30.35
2022-08-26T11:30:15.884Z,30.52
2022-08-26T11:32:54.297Z,30.46
2022-08-26T11:35:23.872Z,30.75
2022-08-26T11:37:58.767Z,28.85
2022-08-26T11:40:34.057Z,30.21
2022-08-26T11:43:07.595Z,28.03
2022-08-26T11:45:43.217Z,28.72
2022-08-26T11:48:29.257Z,28.27
2022-08-26T11:50:58.054Z,29.43
2022-08-26T11:53:31.358Z,28.51
2022-08-26T11:56:05.810Z,28.09
2022-08-26T11:58:41.974Z,28.78
2022-08-26T12:01:21.534Z,30.20
2022-08-26T12:03:55.328Z,31.19
2022-08-26T12:08:55.665Z,33.60
2022-08-26T12:11:34.387Z,29.99
2022-08-26T12:14:07.394Z,31.86
2022-08-26T12:16:38.368Z,32.28
2022-08-26T12:19:28.906Z,33.79
2022-08-26T12:22:15.528Z,32.55
2022-08-26T12:24:46.650Z,28.17
2022-08-26T12:27:19.126Z,29.18
2022-08-26T12:30:12.464Z,29.30
2022-08-26T12:32:57.199Z,28.97
2022-08-26T12:35:26.352Z,27.85
2022-08-26T12:37:55.143Z,28.72
2022-08-26T12:40:31.754Z,28.61
2022-08-26T12:43:04.404Z,28.97
2022-08-26T12:45:42.594Z,30.69
2022-08-26T12:48:16.258Z,30.64
2022-08-26T12:50:50.929Z,29.80
2022-08-26T12:53:31.060Z,30.48
2022-08-26T12:56:04.741Z,32.15
2022-08-26T12:58:37.606Z,30.59
2022-08-26T13:01:23.165Z,28.96
2022-08-26T13:03:59.670Z,29.73
2022-08-26T13:06:47.233Z,30.24
2022-08-26T13:09:28.831Z,32.50
2022-08-26T13:12:02.554Z,32.75
2022-08-26T13:14:33.252Z,31.41
2022-08-26T13:17:09.787Z,30.69
2022-08-26T13:19:46.666Z,30.48
2022-08-26T13:22:19.325Z,30.95
2022-08-26T13:24:51.603Z,30.66
2022-08-26T13:27:24.999Z,32.59
2022-08-26T13:30:02.664Z,32.00
2022-08-26T13:32:37.608Z,29.62
2022-08-26T13:35:11.660Z,30.59
2022-08-26T13:37:45.005Z,30.28
2022-08-26T13:40:14.094Z,30.63
2022-08-26T13:42:49.798Z,31.42
2022-08-26T13:45:22.510Z,32.19
2022-08-26T13:47:58.373Z,30.72
2022-08-26T13:50:26.298Z,30.78
2022-08-26T13:52:56.233Z,30.67
2022-08-26T13:55:35.047Z,32.05
2022-08-26T13:58:04.764Z,31.50
2022-08-26T14:00:41.193Z,31.85
2022-08-26T14:03:13.070Z,31.08
2022-08-26T14:05:43.689Z,31.39
2022-08-26T14:08:14.029Z,33.21
2022-08-26T14:10:45.298Z,32.56
2022-08-26T14:13:19.071Z,31.86
2022-08-26T14:15:54.957Z,30.83
2022-08-26T14:18:26.758Z,31.67
2022-08-26T14:21:00.936Z,31.93
2022-08-26T14:23:30.963Z,32.44
2022-08-26T14:26:10.924Z,33.20
2022-08-26T14:28:45.488Z,33.13
2022-08-26T14:31:25.594Z,33.24
2022-08-26T14:33:53.662Z,32.74
2022-08-26T14:36:25.541Z,32.49
2022-08-26T14:38:57.468Z,32.90
2022-08-26T14:41:28.534Z,33.48
2022-08-26T14:43:59.105Z,35.24
2022-08-26T14:46:31.194Z,34.22
2022-08-26T14:49:01.815Z,36.04
2022-08-26T14:51:33.003Z,34.30
2022-08-26T14:54:03.832Z,34.04
2022-08-26T14:56:34.466Z,35.65
2022-08-26T14:59:05.398Z,35.55
2022-08-26T15:01:36.347Z,35.45
2022-08-26T15:04:03.803Z,35.00
2022-08-26T15:06:33.320Z,34.17
2022-08-26T15:09:09.619Z,34.80
2022-08-26T15:11:37.441Z,34.47
2022-08-26T15:14:19.002Z,35.37
2022-08-26T15:16:55.553Z,35.32
2022-08-26T15:19:29.181Z,35.77
2022-08-26T15:22:00.143Z,35.78
2022-08-26T15:24:30.797Z,36.17
2022-08-26T15:27:01.531Z,35.24
2022-08-26T15:29:29.531Z,35.32
2022-08-26T15:31:57.821Z,35.31
2022-08-26T15:34:27.998Z,35.68
2022-08-26T15:37:02.879Z,35.44
2022-08-26T15:39:34.189Z,35.47
2022-08-26T15:42:05.171Z,37.07
2022-08-26T15:44:38.519Z,35.92
2022-08-26T15:47:12.245Z,36.90
2022-08-26T15:49:43.006Z,36.63
2022-08-26T15:52:20.668Z,39.36
2022-08-26T15:54:52.494Z,37.46
2022-08-26T15:57:20.512Z,37.01
2022-08-26T15:59:49.303Z,36.91
2022-08-26T16:02:21.848Z,35.63
2022-08-26T16:04:54.519Z,36.33
2022-08-26T16:07:22.364Z,37.16
2022-08-26T16:09:55.724Z,39.85
2022-08-26T16:12:31.465Z,40.47
2022-08-26T16:14:59.747Z,39.19
2022-08-26T16:17:29.963Z,40.24
2022-08-26T16:20:01.256Z,41.75
2022-08-26T16:22:28.626Z,41.38
2022-08-26T16:25:08.443Z,40.75
2022-08-26T16:27:39.310Z,39.58
2022-08-26T16:30:07.972Z,39.53
2022-08-26T16:32:42.454Z,39.64
2022-08-26T16:35:13.149Z,40.02
2022-08-26T16:37:43.282Z,40.36
2022-08-26T16:40:14.323Z,40.88
2022-08-26T16:42:44.991Z,40.94
2022-08-26T16:45:12.866Z,40.80
2022-08-26T16:47:40.612Z,42.26
2022-08-26T16:50:09.221Z,43.20
2022-08-26T16:52:36.807Z,42.63
2022-08-26T16:55:04.978Z,43.79
2022-08-26T16:57:44.392Z,45.68
2022-08-26T17:00:18.884Z,45.23
2022-08-26T17:02:53.174Z,45.18
2022-08-26T17:05:23.574Z,46.42
2022-08-26T17:07:58.568Z,46.29
2022-08-26T17:10:29.757Z,45.84
2022-08-26T17:13:00.099Z,46.30
2022-08-26T17:15:30.206Z,45.02
2022-08-26T17:18:05.481Z,45.35
2022-08-26T17:20:34.393Z,45.86
2022-08-26T17:23:09.654Z,47.00
2022-08-26T17:25:40.093Z,47.63
2022-08-26T17:28:13.486Z,47.30
2022-08-26T17:30:41.642Z,47.57
2022-08-26T17:33:17.096Z,48.15
2022-08-26T17:35:50.077Z,48.64
2022-08-26T17:38:24.066Z,48.52
2022-08-26T17:40:51.898Z,48.75
2022-08-26T17:43:22.678Z,49.15
2022-08-26T17:45:50.003Z,49.30
2022-08-26T17:48:17.374Z,50.00
2022-08-26T17:50:45.517Z,50.32
2022-08-26T17:53:19.028Z,49.76
2022-08-26T17:55:49.786Z,50.32
2022-08-26T17:58:18.891Z,50.55
2022-08-26T18:00:52.203Z,51.48
2022-08-26T18:03:22.241Z,50.98
2022-08-26T18:05:50.623Z,51.39
2022-08-26T18:08:23.035Z,52.26
2022-08-26T18:10:51.063Z,52.04
2022-08-26T18:13:21.374Z,51.95
2022-08-26T18:15:48.801Z,52.23
2022-08-26T18:18:16.916Z,52.56
2022-08-26T18:20:45.054Z,53.46
2022-08-26T18:23:15.463Z,54.17
2022-08-26T18:25:46.127Z,54.29
2022-08-26T18:28:13.500Z,53.31
2022-08-26T18:30:44.773Z,53.49
2022-08-26T18:33:14.350Z,53.34
2022-08-26T18:35:45.555Z,53.70
2022-08-26T18:38:13.457Z,54.86
2022-08-26T18:40:50.971Z,55.50
2022-08-26T18:43:24.454Z,55.34
2022-08-26T18:46:02.738Z,56.22
2022-08-26T18:48:30.166Z,55.98
2022-08-26T18:51:04.669Z,56.62
2022-08-26T18:53:38.174Z,54.80
2022-08-26T18:56:06.093Z,56.57
2022-08-26T18:58:36.318Z,55.74
2022-08-26T19:01:07.202Z,55.04
2022-08-26T19:03:34.772Z,55.77
2022-08-26T19:06:02.366Z,56.13
2022-08-26T19:08:29.830Z,54.59
2022-08-26T19:10:58.978Z,55.33
2022-08-26T19:13:26.293Z,55.94
2022-08-26T19:15:53.625Z,56.54
2022-08-26T19:18:21.834Z,56.27
2022-08-26T19:20:49.591Z,55.17
2022-08-26T19:23:30.969Z,55.25
2022-08-26T19:26:02.503Z,55.10
2022-08-26T19:28:30.442Z,54.90
2022-08-26T19:30:58.245Z,55.67
2022-08-26T19:33:25.905Z,56.10
2022-08-26T19:35:53.327Z,54.03
2022-08-26T19:38:20.965Z,55.03
2022-08-26T19:40:48.174Z,55.17
2022-08-26T19:43:15.489Z,55.25
2022-08-26T19:45:45.384Z,55.07
2022-08-26T19:48:12.801Z,55.39
2022-08-26T19:50:40.236Z,57.38
2022-08-26T19:53:07.848Z,57.74
2022-08-26T19:55:35.088Z,55.66
2022-08-26T19:58:02.480Z,56.85
2022-08-26T20:00:30.433Z,57.68
2022-08-26T20:02:58.614Z,57.52
2022-08-26T20:05:27.090Z,59.28
2022-08-26T20:07:54.550Z,59.46
2022-08-26T20:10:22.876Z,59.10
2022-08-26T20:12:52.149Z,59.18
2022-08-26T20:15:21.815Z,59.81
2022-08-26T20:17:52.140Z,60.16
2022-08-26T20:20:32.623Z,60.28
2022-08-26T20:23:04.014Z,60.75
2022-08-26T20:25:32.234Z,61.40
2022-08-26T20:27:59.605Z,61.49
2022-08-26T20:30:26.986Z,61.59
2022-08-26T20:32:54.251Z,62.44
2022-08-26T20:35:23.002Z,63.52
2022-08-26T20:37:51.281Z,63.86
2022-08-26T20:40:18.797Z,64.06
2022-08-26T20:42:49.342Z,64.77
2022-08-26T20:45:16.766Z,64.70
2022-08-26T20:47:44.544Z,65.17
2022-08-26T20:50:11.774Z,65.94
2022-08-26T20:52:39.232Z,65.51
2022-08-26T20:55:06.807Z,65.27
2022-08-26T20:57:34.387Z,66.06
2022-08-26T21:00:01.794Z,65.77
2022-08-26T21:02:29.004Z,66.49
2022-08-26T21:04:56.420Z,67.01
2022-08-26T21:07:23.826Z,67.32
2022-08-26T21:09:51.647Z,68.09
2022-08-26T21:12:19.022Z,68.53
2022-08-26T21:14:49.560Z,69.84
2022-08-26T21:17:17.418Z,70.39
2022-08-26T21:19:44.719Z,69.89
2022-08-26T21:22:12.001Z,70.04
2022-08-26T21:24:39.286Z,70.16
2022-08-26T21:27:06.747Z,69.49
2022-08-26T21:29:34.273Z,69.28
2022-08-26T21:32:02.373Z,69.69
2022-08-26T21:34:29.810Z,70.04
2022-08-26T21:36:57.793Z,69.70
2022-08-26T21:39:25.503Z,68.04
2022-08-26T21:41:53.141Z,67.90
2022-08-26T21:44:20.436Z,66.94
2022-08-26T21:46:48.419Z,65.56
2022-08-26T21:49:16.722Z,65.03
2022-08-26T21:51:46.015Z,63.68
2022-08-26T21:54:16.286Z,61.50
2022-08-26T21:56:46.903Z,61.85
2022-08-26T21:59:18.138Z,61.65
2022-08-26T22:01:45.685Z,61.34
2022-08-26T22:04:15.999Z,60.58
2022-08-26T22:06:45.238Z,61.08
2022-08-26T22:09:13.773Z,61.02
2022-08-26T22:11:41.182Z,60.91
2022-08-26T22:14:08.458Z,60.57
2022-08-26T22:16:35.894Z,60.61
2022-08-26T22:19:03.547Z,61.58
2022-08-26T22:21:31.176Z,63.25
2022-08-26T22:23:58.794Z,65.05
2022-08-26T22:26:28.742Z,64.02
2022-08-26T22:28:59.032Z,63.50
2022-08-26T22:31:37.277Z,63.30
2022-08-26T22:34:10.657Z,63.16
2022-08-26T22:36:43.718Z,63.02
2022-08-26T22:39:12.745Z,65.41
2022-08-26T22:41:40.422Z,65.32
2022-08-26T22:44:08.021Z,64.34
2022-08-26T22:46:36.119Z,63.87
2022-08-26T22:49:03.626Z,64.45
2022-08-26T22:51:30.941Z,63.75
2022-08-26T22:53:58.211Z,63.78
2022-08-26T22:56:25.554Z,63.56
2022-08-26T22:58:53.198Z,62.98
2022-08-26T23:01:20.645Z,64.37
2022-08-26T23:03:48.051Z,64.60
2022-08-26T23:06:15.417Z,65.13
2022-08-26T23:08:47.285Z,63.94
2022-08-26T23:11:14.808Z,63.45
2022-08-26T23:13:42.277Z,62.98
2022-08-26T23:16:11.239Z,63.28
2022-08-26T23:18:39.372Z,63.23
2022-08-26T23:21:09.440Z,63.42
2022-08-26T23:23:36.859Z,63.67
2022-08-26T23:26:06.286Z,63.70
2022-08-26T23:28:34.723Z,64.41
2022-08-26T23:31:01.995Z,64.17
2022-08-26T23:33:29.301Z,64.85
2022-08-26T23:35:56.566Z,65.35
2022-08-26T23:38:23.880Z,64.95
2022-08-26T23:40:53.417Z,65.13
2022-08-26T23:43:20.689Z,65.54
2022-08-26T23:45:47.960Z,66.28
2022-08-26T23:48:15.262Z,66.45
2022-08-26T23:50:46.750Z,67.59
2022-08-26T23:53:15.743Z,67.17
2022-08-26T23:55:43.033Z,67.24
2022-08-26T23:58:10.416Z,67.60
